sensor_id;sensor_type;location;lat;lon;timestamp;temperature;humidity
72128;DHT22;60000;51.030;7.024;2023-08-24T00:01:02;18.07;78.77
72128;DHT22;60000;51.030;7.024;2023-08-24T00:03:27;18.03;78.62
72128;DHT22;60000;51.030;7.024;2023-08-24T00:05:53;18.00;78.51
72128;DHT22;60000;51.030;7.024;2023-08-24T00:08:19;17.97;78.42
72128;DHT22;60000;51.030;7.024;2023-08-24T00:10:44;17.97;78.30
72128;DHT22;60000;51.030;7.024;2023-08-24T00:13:12;17.99;78.01
72128;DHT22;60000;51.030;7.024;2023-08-24T00:15:37;17.99;78.23
72128;DHT22;60000;51.030;7.024;2023-08-24T00:18:04;18.01;78.41
72128;DHT22;60000;51.030;7.024;2023-08-24T00:20:30;18.01;78.19
72128;DHT22;60000;51.030;7.024;2023-08-24T00:22:55;18.03;78.13
72128;DHT22;60000;51.030;7.024;2023-08-24T00:25:20;18.03;78.13
72128;DHT22;60000;51.030;7.024;2023-08-24T00:27:46;18.04;78.13
72128;DHT22;60000;51.030;7.024;2023-08-24T00:30:11;18.06;77.89
72128;DHT22;60000;51.030;7.024;2023-08-24T00:32:37;18.04;77.89
72128;DHT22;60000;51.030;7.024;2023-08-24T00:35:06;18.01;78.01
72128;DHT22;60000;51.030;7.024;2023-08-24T00:37:32;18.04;78.16
72128;DHT22;60000;51.030;7.024;2023-08-24T00:40:00;18.00;78.25
72128;DHT22;60000;51.030;7.024;2023-08-24T00:42:27;17.97;78.03
72128;DHT22;60000;51.030;7.024;2023-08-24T00:44:52;17.94;78.10
72128;DHT22;60000;51.030;7.024;2023-08-24T00:47:17;17.94;78.25
72128;DHT22;60000;51.030;7.024;2023-08-24T00:49:43;17.93;77.92
72128;DHT22;60000;51.030;7.024;2023-08-24T00:52:09;17.91;77.94
72128;DHT22;60000;51.030;7.024;2023-08-24T00:54:36;17.93;78.14
72128;DHT22;60000;51.030;7.024;2023-08-24T00:57:03;17.86;77.97
72128;DHT22;60000;51.030;7.024;2023-08-24T00:59:29;17.85;77.68
72128;DHT22;60000;51.030;7.024;2023-08-24T01:01:55;17.83;77.45
72128;DHT22;60000;51.030;7.024;2023-08-24T01:04:22;17.83;77.38
72128;DHT22;60000;51.030;7.024;2023-08-24T01:06:48;17.80;77.23
72128;DHT22;60000;51.030;7.024;2023-08-24T01:09:13;17.77;77.26
72128;DHT22;60000;51.030;7.024;2023-08-24T01:11:59;17.76;77.34
72128;DHT22;60000;51.030;7.024;2023-08-24T01:14:44;17.75;77.20
72128;DHT22;60000;51.030;7.024;2023-08-24T01:17:15;17.76;77.39
72128;DHT22;60000;51.030;7.024;2023-08-24T01:19:44;17.76;77.56
72128;DHT22;60000;51.030;7.024;2023-08-24T01:22:23;17.75;77.60
72128;DHT22;60000;51.030;7.024;2023-08-24T01:25:24;17.72;77.39
72128;DHT22;60000;51.030;7.024;2023-08-24T01:27:51;17.72;77.54
72128;DHT22;60000;51.030;7.024;2023-08-24T01:30:17;17.69;77.58
72128;DHT22;60000;51.030;7.024;2023-08-24T01:32:43;17.65;77.75
72128;DHT22;60000;51.030;7.024;2023-08-24T01:35:09;17.66;77.78
72128;DHT22;60000;51.030;7.024;2023-08-24T01:37:35;17.65;77.74
72128;DHT22;60000;51.030;7.024;2023-08-24T01:42:51;17.59;77.63
72128;DHT22;60000;51.030;7.024;2023-08-24T01:45:18;17.58;77.73
72128;DHT22;60000;51.030;7.024;2023-08-24T01:47:45;17.53;77.94
72128;DHT22;60000;51.030;7.024;2023-08-24T01:50:12;17.53;78.25
72128;DHT22;60000;51.030;7.024;2023-08-24T01:52:39;17.50;78.29
72128;DHT22;60000;51.030;7.024;2023-08-24T01:55:05;17.46;78.40
72128;DHT22;60000;51.030;7.024;2023-08-24T01:57:31;17.43;78.18
72128;DHT22;60000;51.030;7.024;2023-08-24T01:59:56;17.45;78.33
72128;DHT22;60000;51.030;7.024;2023-08-24T02:02:22;17.40;78.69
72128;DHT22;60000;51.030;7.024;2023-08-24T02:04:47;17.36;79.11
72128;DHT22;60000;51.030;7.024;2023-08-24T02:07:13;17.35;79.38
72128;DHT22;60000;51.030;7.024;2023-08-24T02:09:38;17.35;79.49
72128;DHT22;60000;51.030;7.024;2023-08-24T02:12:03;17.29;79.51
72128;DHT22;60000;51.030;7.024;2023-08-24T02:14:29;17.29;79.73
72128;DHT22;60000;51.030;7.024;2023-08-24T02:16:54;17.27;79.93
72128;DHT22;60000;51.030;7.024;2023-08-24T02:19:19;17.24;79.82
72128;DHT22;60000;51.030;7.024;2023-08-24T02:21:45;17.21;79.97
72128;DHT22;60000;51.030;7.024;2023-08-24T02:24:10;17.19;79.96
72128;DHT22;60000;51.030;7.024;2023-08-24T02:26:35;17.19;79.97
72128;DHT22;60000;51.030;7.024;2023-08-24T02:29:01;17.18;80.03
72128;DHT22;60000;51.030;7.024;2023-08-24T02:31:26;17.18;80.17
72128;DHT22;60000;51.030;7.024;2023-08-24T02:33:51;17.17;80.40
72128;DHT22;60000;51.030;7.024;2023-08-24T02:36:17;17.18;80.22
72128;DHT22;60000;51.030;7.024;2023-08-24T02:38:42;17.14;80.34
72128;DHT22;60000;51.030;7.024;2023-08-24T02:41:07;17.17;80.17
72128;DHT22;60000;51.030;7.024;2023-08-24T02:43:34;17.17;80.20
72128;DHT22;60000;51.030;7.024;2023-08-24T02:46:08;17.17;80.07
72128;DHT22;60000;51.030;7.024;2023-08-24T02:48:34;17.18;79.99
72128;DHT22;60000;51.030;7.024;2023-08-24T02:51:01;17.17;79.85
72128;DHT22;60000;51.030;7.024;2023-08-24T02:53:28;17.17;79.82
72128;DHT22;60000;51.030;7.024;2023-08-24T02:55:54;17.19;79.86
72128;DHT22;60000;51.030;7.024;2023-08-24T02:58:20;17.19;79.72
72128;DHT22;60000;51.030;7.024;2023-08-24T03:00:45;17.21;79.78
72128;DHT22;60000;51.030;7.024;2023-08-24T03:03:13;17.22;79.71
72128;DHT22;60000;51.030;7.024;2023-08-24T03:05:38;17.25;79.70
72128;DHT22;60000;51.030;7.024;2023-08-24T03:08:03;17.24;79.76
72128;DHT22;60000;51.030;7.024;2023-08-24T03:10:30;17.27;80.01
72128;DHT22;60000;51.030;7.024;2023-08-24T03:12:55;17.31;80.13
72128;DHT22;60000;51.030;7.024;2023-08-24T03:15:20;17.32;80.13
72128;DHT22;60000;51.030;7.024;2023-08-24T03:17:46;17.32;80.18
72128;DHT22;60000;51.030;7.024;2023-08-24T03:20:12;17.38;79.99
72128;DHT22;60000;51.030;7.024;2023-08-24T03:22:37;17.40;80.33
72128;DHT22;60000;51.030;7.024;2023-08-24T03:25:03;17.42;80.51
72128;DHT22;60000;51.030;7.024;2023-08-24T03:27:29;17.49;80.54
72128;DHT22;60000;51.030;7.024;2023-08-24T03:29:54;17.49;80.67
72128;DHT22;60000;51.030;7.024;2023-08-24T03:32:19;17.49;80.64
72128;DHT22;60000;51.030;7.024;2023-08-24T03:34:45;17.52;80.67
72128;DHT22;60000;51.030;7.024;2023-08-24T03:37:10;17.49;80.45
72128;DHT22;60000;51.030;7.024;2023-08-24T03:39:39;17.49;80.54
72128;DHT22;60000;51.030;7.024;2023-08-24T03:42:04;17.52;80.49
72128;DHT22;60000;51.030;7.024;2023-08-24T03:44:30;17.56;80.74
72128;DHT22;60000;51.030;7.024;2023-08-24T03:46:55;17.58;80.94
72128;DHT22;60000;51.030;7.024;2023-08-24T03:49:21;17.61;80.93
72128;DHT22;60000;51.030;7.024;2023-08-24T03:51:46;17.59;80.84
72128;DHT22;60000;51.030;7.024;2023-08-24T03:54:11;17.62;81.29
72128;DHT22;60000;51.030;7.024;2023-08-24T03:56:36;17.62;81.38
72128;DHT22;60000;51.030;7.024;2023-08-24T03:59:02;17.62;81.25
72128;DHT22;60000;51.030;7.024;2023-08-24T04:01:27;17.59;81.31
72128;DHT22;60000;51.030;7.024;2023-08-24T04:03:52;17.59;81.33
72128;DHT22;60000;51.030;7.024;2023-08-24T04:06:18;17.65;81.91
72128;DHT22;60000;51.030;7.024;2023-08-24T04:08:44;17.68;82.09
72128;DHT22;60000;51.030;7.024;2023-08-24T04:11:10;17.68;82.03
72128;DHT22;60000;51.030;7.024;2023-08-24T04:13:35;17.70;82.38
72128;DHT22;60000;51.030;7.024;2023-08-24T04:16:00;17.73;82.62
72128;DHT22;60000;51.030;7.024;2023-08-24T04:18:26;17.70;82.35
72128;DHT22;60000;51.030;7.024;2023-08-24T04:20:52;17.70;82.31
72128;DHT22;60000;51.030;7.024;2023-08-24T04:23:26;17.70;82.43
72128;DHT22;60000;51.030;7.024;2023-08-24T04:25:52;17.69;82.29
72128;DHT22;60000;51.030;7.024;2023-08-24T04:28:18;17.69;82.19
72128;DHT22;60000;51.030;7.024;2023-08-24T04:30:51;17.68;82.02
72128;DHT22;60000;51.030;7.024;2023-08-24T04:33:17;17.68;82.14
72128;DHT22;60000;51.030;7.024;2023-08-24T04:35:46;17.68;82.13
72128;DHT22;60000;51.030;7.024;2023-08-24T04:38:11;17.66;81.98
72128;DHT22;60000;51.030;7.024;2023-08-24T04:40:50;17.63;82.09
72128;DHT22;60000;51.030;7.024;2023-08-24T04:43:16;17.62;82.00
72128;DHT22;60000;51.030;7.024;2023-08-24T04:45:42;17.63;82.02
72128;DHT22;60000;51.030;7.024;2023-08-24T04:48:07;17.63;82.22
72128;DHT22;60000;51.030;7.024;2023-08-24T04:50:33;17.63;82.35
72128;DHT22;60000;51.030;7.024;2023-08-24T04:52:58;17.62;82.62
72128;DHT22;60000;51.030;7.024;2023-08-24T04:55:24;17.61;82.83
72128;DHT22;60000;51.030;7.024;2023-08-24T04:57:49;17.61;83.01
72128;DHT22;60000;51.030;7.024;2023-08-24T05:00:14;17.58;83.08
72128;DHT22;60000;51.030;7.024;2023-08-24T05:02:42;17.56;83.28
72128;DHT22;60000;51.030;7.024;2023-08-24T05:05:08;17.55;83.51
72128;DHT22;60000;51.030;7.024;2023-08-24T05:07:35;17.56;83.80
72128;DHT22;60000;51.030;7.024;2023-08-24T05:10:00;17.53;84.06
72128;DHT22;60000;51.030;7.024;2023-08-24T05:12:26;17.53;84.22
72128;DHT22;60000;51.030;7.024;2023-08-24T05:14:51;17.53;84.21
72128;DHT22;60000;51.030;7.024;2023-08-24T05:17:16;17.56;84.38
72128;DHT22;60000;51.030;7.024;2023-08-24T05:19:42;17.53;84.53
72128;DHT22;60000;51.030;7.024;2023-08-24T05:22:07;17.52;84.60
72128;DHT22;60000;51.030;7.024;2023-08-24T05:24:32;17.50;84.75
72128;DHT22;60000;51.030;7.024;2023-08-24T05:26:57;17.49;85.02
72128;DHT22;60000;51.030;7.024;2023-08-24T05:29:23;17.52;85.06
72128;DHT22;60000;51.030;7.024;2023-08-24T05:31:48;17.52;85.33
72128;DHT22;60000;51.030;7.024;2023-08-24T05:34:13;17.49;85.46
72128;DHT22;60000;51.030;7.024;2023-08-24T05:36:39;17.50;85.66
72128;DHT22;60000;51.030;7.024;2023-08-24T05:39:04;17.50;85.90
72128;DHT22;60000;51.030;7.024;2023-08-24T05:41:29;17.53;86.16
72128;DHT22;60000;51.030;7.024;2023-08-24T05:43:54;17.62;86.46
72128;DHT22;60000;51.030;7.024;2023-08-24T05:46:22;17.62;86.53
72128;DHT22;60000;51.030;7.024;2023-08-24T05:48:47;17.66;86.60
72128;DHT22;60000;51.030;7.024;2023-08-24T05:51:14;17.70;86.72
72128;DHT22;60000;51.030;7.024;2023-08-24T05:53:39;17.75;86.88
72128;DHT22;60000;51.030;7.024;2023-08-24T05:56:06;17.76;86.75
72128;DHT22;60000;51.030;7.024;2023-08-24T05:58:31;17.80;86.79
72128;DHT22;60000;51.030;7.024;2023-08-24T06:00:59;17.79;86.87
72128;DHT22;60000;51.030;7.024;2023-08-24T06:03:25;17.83;87.01
72128;DHT22;60000;51.030;7.024;2023-08-24T06:05:51;17.89;87.06
72128;DHT22;60000;51.030;7.024;2023-08-24T06:08:16;17.91;87.22
72128;DHT22;60000;51.030;7.024;2023-08-24T06:10:42;17.97;87.20
72128;DHT22;60000;51.030;7.024;2023-08-24T06:13:07;18.06;87.22
72128;DHT22;60000;51.030;7.024;2023-08-24T06:15:32;18.11;87.23
72128;DHT22;60000;51.030;7.024;2023-08-24T06:17:57;18.20;87.02
72128;DHT22;60000;51.030;7.024;2023-08-24T06:20:24;18.27;86.98
72128;DHT22;60000;51.030;7.024;2023-08-24T06:22:50;18.33;86.86
72128;DHT22;60000;51.030;7.024;2023-08-24T06:25:15;18.38;86.65
72128;DHT22;60000;51.030;7.024;2023-08-24T06:27:40;18.45;86.62
72128;DHT22;60000;51.030;7.024;2023-08-24T06:30:06;18.57;86.48
72128;DHT22;60000;51.030;7.024;2023-08-24T06:32:32;18.62;86.47
72128;DHT22;60000;51.030;7.024;2023-08-24T06:34:57;18.71;86.39
72128;DHT22;60000;51.030;7.024;2023-08-24T06:37:23;18.75;86.25
72128;DHT22;60000;51.030;7.024;2023-08-24T06:39:48;18.89;86.47
72128;DHT22;60000;51.030;7.024;2023-08-24T06:42:13;19.23;88.11
72128;DHT22;60000;51.030;7.024;2023-08-24T06:44:38;19.41;85.54
72128;DHT22;60000;51.030;7.024;2023-08-24T06:47:04;19.75;84.88
72128;DHT22;60000;51.030;7.024;2023-08-24T06:49:29;20.06;83.35
72128;DHT22;60000;51.030;7.024;2023-08-24T06:51:55;20.42;81.32
72128;DHT22;60000;51.030;7.024;2023-08-24T06:54:20;20.79;80.46
72128;DHT22;60000;51.030;7.024;2023-08-24T06:56:45;21.11;79.10
72128;DHT22;60000;51.030;7.024;2023-08-24T06:59:10;21.28;77.57
72128;DHT22;60000;51.030;7.024;2023-08-24T07:01:38;21.55;77.00
72128;DHT22;60000;51.030;7.024;2023-08-24T07:04:03;21.88;76.70
72128;DHT22;60000;51.030;7.024;2023-08-24T07:06:29;22.06;74.66
72128;DHT22;60000;51.030;7.024;2023-08-24T07:08:54;22.16;73.55
72128;DHT22;60000;51.030;7.024;2023-08-24T07:11:19;22.33;73.67
72128;DHT22;60000;51.030;7.024;2023-08-24T07:13:46;22.61;73.67
72128;DHT22;60000;51.030;7.024;2023-08-24T07:16:11;23.02;72.80
72128;DHT22;60000;51.030;7.024;2023-08-24T07:18:36;23.37;70.87
72128;DHT22;60000;51.030;7.024;2023-08-24T07:21:02;23.64;69.84
72128;DHT22;60000;51.030;7.024;2023-08-24T07:23:27;23.88;68.24
72128;DHT22;60000;51.030;7.024;2023-08-24T07:25:53;24.11;67.33
72128;DHT22;60000;51.030;7.024;2023-08-24T07:28:19;24.40;66.95
72128;DHT22;60000;51.030;7.024;2023-08-24T07:30:44;24.55;65.13
72128;DHT22;60000;51.030;7.024;2023-08-24T07:33:10;24.84;64.37
72128;DHT22;60000;51.030;7.024;2023-08-24T07:35:35;25.10;63.15
72128;DHT22;60000;51.030;7.024;2023-08-24T07:38:00;25.30;62.03
72128;DHT22;60000;51.030;7.024;2023-08-24T07:40:26;25.57;61.36
72128;DHT22;60000;51.030;7.024;2023-08-24T07:42:52;25.83;61.23
72128;DHT22;60000;51.030;7.024;2023-08-24T07:45:20;25.90;59.18
72128;DHT22;60000;51.030;7.024;2023-08-24T07:47:45;26.10;58.27
72128;DHT22;60000;51.030;7.024;2023-08-24T07:50:11;26.27;57.21
72128;DHT22;60000;51.030;7.024;2023-08-24T07:52:37;26.27;57.33
72128;DHT22;60000;51.030;7.024;2023-08-24T07:55:04;26.53;57.27
72128;DHT22;60000;51.030;7.024;2023-08-24T07:57:30;26.75;56.37
72128;DHT22;60000;51.030;7.024;2023-08-24T07:59:57;27.01;57.10
72128;DHT22;60000;51.030;7.024;2023-08-24T08:02:22;27.38;54.61
72128;DHT22;60000;51.030;7.024;2023-08-24T08:04:47;27.51;53.97
72128;DHT22;60000;51.030;7.024;2023-08-24T08:07:13;27.63;54.22
72128;DHT22;60000;51.030;7.024;2023-08-24T08:09:38;27.57;52.12
72128;DHT22;60000;51.030;7.024;2023-08-24T08:12:04;27.46;53.07
72128;DHT22;60000;51.030;7.024;2023-08-24T08:14:29;27.47;53.03
72128;DHT22;60000;51.030;7.024;2023-08-24T08:16:56;27.38;53.35
72128;DHT22;60000;51.030;7.024;2023-08-24T08:19:21;27.42;53.07
72128;DHT22;60000;51.030;7.024;2023-08-24T08:21:47;27.56;52.49
72128;DHT22;60000;51.030;7.024;2023-08-24T08:24:12;27.49;52.46
72128;DHT22;60000;51.030;7.024;2023-08-24T08:26:38;27.70;53.35
72128;DHT22;60000;51.030;7.024;2023-08-24T08:29:03;27.73;52.85
72128;DHT22;60000;51.030;7.024;2023-08-24T08:31:28;27.81;52.85
72128;DHT22;60000;51.030;7.024;2023-08-24T08:33:54;27.98;51.23
72128;DHT22;60000;51.030;7.024;2023-08-24T08:36:19;27.93;50.50
72128;DHT22;60000;51.030;7.024;2023-08-24T08:38:44;28.08;51.48
72128;DHT22;60000;51.030;7.024;2023-08-24T08:41:10;28.28;50.98
72128;DHT22;60000;51.030;7.024;2023-08-24T08:43:38;28.47;49.99
72128;DHT22;60000;51.030;7.024;2023-08-24T08:46:03;28.58;50.92
72128;DHT22;60000;51.030;7.024;2023-08-24T08:48:30;28.55;49.55
72128;DHT22;60000;51.030;7.024;2023-08-24T08:50:57;28.56;50.17
72128;DHT22;60000;51.030;7.024;2023-08-24T08:53:23;28.69;49.94
72128;DHT22;60000;51.030;7.024;2023-08-24T08:55:53;28.63;49.67
72128;DHT22;60000;51.030;7.024;2023-08-24T08:58:20;28.66;49.72
72128;DHT22;60000;51.030;7.024;2023-08-24T09:00:46;28.52;49.37
72128;DHT22;60000;51.030;7.024;2023-08-24T09:03:14;28.39;49.43
72128;DHT22;60000;51.030;7.024;2023-08-24T09:05:40;28.48;50.12
72128;DHT22;60000;51.030;7.024;2023-08-24T09:08:06;28.65;50.03
72128;DHT22;60000;51.030;7.024;2023-08-24T09:10:31;28.62;49.45
72128;DHT22;60000;51.030;7.024;2023-08-24T09:12:57;28.72;48.98
72128;DHT22;60000;51.030;7.024;2023-08-24T09:15:31;28.73;48.81
72128;DHT22;60000;51.030;7.024;2023-08-24T09:17:59;28.86;49.28
72128;DHT22;60000;51.030;7.024;2023-08-24T09:20:28;28.89;49.22
72128;DHT22;60000;51.030;7.024;2023-08-24T09:22:57;29.02;48.46
72128;DHT22;60000;51.030;7.024;2023-08-24T09:25:23;29.00;48.21
72128;DHT22;60000;51.030;7.024;2023-08-24T09:28:03;28.93;47.49
72128;DHT22;60000;51.030;7.024;2023-08-24T09:30:34;28.70;46.86
72128;DHT22;60000;51.030;7.024;2023-08-24T09:33:04;28.53;47.88
72128;DHT22;60000;51.030;7.024;2023-08-24T09:35:34;28.45;48.57
72128;DHT22;60000;51.030;7.024;2023-08-24T09:38:00;28.62;48.73
72128;DHT22;60000;51.030;7.024;2023-08-24T09:40:25;28.63;47.96
72128;DHT22;60000;51.030;7.024;2023-08-24T09:42:51;28.66;48.08
72128;DHT22;60000;51.030;7.024;2023-08-24T09:45:16;28.73;48.16
72128;DHT22;60000;51.030;7.024;2023-08-24T09:47:54;28.82;48.71
72128;DHT22;60000;51.030;7.024;2023-08-24T09:50:20;28.92;49.45
72128;DHT22;60000;51.030;7.024;2023-08-24T09:52:47;28.99;49.03
72128;DHT22;60000;51.030;7.024;2023-08-24T09:55:16;28.87;48.03
72128;DHT22;60000;51.030;7.024;2023-08-24T09:57:44;28.82;48.01
72128;DHT22;60000;51.030;7.024;2023-08-24T10:00:10;28.84;48.52
72128;DHT22;60000;51.030;7.024;2023-08-24T10:02:49;28.87;47.91
72128;DHT22;60000;51.030;7.024;2023-08-24T10:05:19;28.90;48.34
72128;DHT22;60000;51.030;7.024;2023-08-24T10:07:53;29.17;49.35
72128;DHT22;60000;51.030;7.024;2023-08-24T10:10:20;29.34;48.54
72128;DHT22;60000;51.030;7.024;2023-08-24T10:12:49;29.41;48.02
72128;DHT22;60000;51.030;7.024;2023-08-24T10:15:16;29.24;47.50
72128;DHT22;60000;51.030;7.024;2023-08-24T10:17:43;29.27;48.86
72128;DHT22;60000;51.030;7.024;2023-08-24T10:20:10;29.16;49.04
72128;DHT22;60000;51.030;7.024;2023-08-24T10:22:37;28.99;48.91
72128;DHT22;60000;51.030;7.024;2023-08-24T10:25:03;28.93;49.44
72128;DHT22;60000;51.030;7.024;2023-08-24T10:27:29;28.93;49.83
72128;DHT22;60000;51.030;7.024;2023-08-24T10:29:55;28.82;48.87
72128;DHT22;60000;51.030;7.024;2023-08-24T10:32:22;28.73;49.41
72128;DHT22;60000;51.030;7.024;2023-08-24T10:34:48;28.70;49.32
72128;DHT22;60000;51.030;7.024;2023-08-24T10:37:13;28.70;49.42
72128;DHT22;60000;51.030;7.024;2023-08-24T10:39:45;28.68;51.12
72128;DHT22;60000;51.030;7.024;2023-08-24T10:42:12;28.73;50.86
72128;DHT22;60000;51.030;7.024;2023-08-24T10:44:39;28.70;51.02
72128;DHT22;60000;51.030;7.024;2023-08-24T10:47:15;28.76;52.06
72128;DHT22;60000;51.030;7.024;2023-08-24T10:49:42;28.84;51.48
72128;DHT22;60000;51.030;7.024;2023-08-24T10:54:48;28.92;51.22
72128;DHT22;60000;51.030;7.024;2023-08-24T10:57:26;28.86;50.32
72128;DHT22;60000;51.030;7.024;2023-08-24T11:00:12;28.80;50.92
72128;DHT22;60000;51.030;7.024;2023-08-24T11:02:51;28.77;50.81
72128;DHT22;60000;51.030;7.024;2023-08-24T11:13:16;29.14;49.98
72128;DHT22;60000;51.030;7.024;2023-08-24T11:15:45;29.02;49.28
72128;DHT22;60000;51.030;7.024;2023-08-24T11:18:28;29.06;50.12
72128;DHT22;60000;51.030;7.024;2023-08-24T11:20:56;29.17;50.64
72128;DHT22;60000;51.030;7.024;2023-08-24T11:23:23;29.11;50.63
72128;DHT22;60000;51.030;7.024;2023-08-24T11:25:50;29.27;51.51
72128;DHT22;60000;51.030;7.024;2023-08-24T11:28:24;29.35;52.13
72128;DHT22;60000;51.030;7.024;2023-08-24T11:30:51;29.43;51.38
72128;DHT22;60000;51.030;7.024;2023-08-24T11:33:17;29.34;50.82
72128;DHT22;60000;51.030;7.024;2023-08-24T11:35:51;29.14;50.81
72128;DHT22;60000;51.030;7.024;2023-08-24T11:38:18;29.04;50.68
72128;DHT22;60000;51.030;7.024;2023-08-24T11:40:43;29.02;50.82
72128;DHT22;60000;51.030;7.024;2023-08-24T11:43:08;28.97;51.15
72128;DHT22;60000;51.030;7.024;2023-08-24T11:45:35;28.93;50.89
72128;DHT22;60000;51.030;7.024;2023-08-24T11:48:06;28.93;52.16
72128;DHT22;60000;51.030;7.024;2023-08-24T11:50:32;28.84;51.13
72128;DHT22;60000;51.030;7.024;2023-08-24T11:52:59;28.80;50.92
72128;DHT22;60000;51.030;7.024;2023-08-24T11:55:25;28.79;50.52
72128;DHT22;60000;51.030;7.024;2023-08-24T11:57:51;28.80;50.13
72128;DHT22;60000;51.030;7.024;2023-08-24T12:00:18;28.73;50.09
72128;DHT22;60000;51.030;7.024;2023-08-24T12:02:45;28.68;49.17
72128;DHT22;60000;51.030;7.024;2023-08-24T12:05:24;28.59;48.94
72128;DHT22;60000;51.030;7.024;2023-08-24T12:07:51;28.62;48.80
72128;DHT22;60000;51.030;7.024;2023-08-24T12:10:17;28.56;48.27
72128;DHT22;60000;51.030;7.024;2023-08-24T12:12:43;28.56;49.11
72128;DHT22;60000;51.030;7.024;2023-08-24T12:15:15;28.52;48.71
72128;DHT22;60000;51.030;7.024;2023-08-24T12:17:44;28.39;47.94
72128;DHT22;60000;51.030;7.024;2023-08-24T12:20:18;28.29;48.89
72128;DHT22;60000;51.030;7.024;2023-08-24T12:22:43;28.22;49.98
72128;DHT22;60000;51.030;7.024;2023-08-24T12:25:09;28.22;50.49
72128;DHT22;60000;51.030;7.024;2023-08-24T12:27:34;28.11;50.16
72128;DHT22;60000;51.030;7.024;2023-08-24T12:30:02;28.12;52.79
72128;DHT22;60000;51.030;7.024;2023-08-24T12:32:47;28.10;52.35
72128;DHT22;60000;51.030;7.024;2023-08-24T12:35:16;27.94;52.75
72128;DHT22;60000;51.030;7.024;2023-08-24T12:37:41;27.84;53.45
72128;DHT22;60000;51.030;7.024;2023-08-24T12:40:07;27.64;53.19
72128;DHT22;60000;51.030;7.024;2023-08-24T12:42:33;27.53;53.99
72128;DHT22;60000;51.030;7.024;2023-08-24T12:44:58;27.33;54.37
72128;DHT22;60000;51.030;7.024;2023-08-24T12:47:23;27.28;55.79
72128;DHT22;60000;51.030;7.024;2023-08-24T12:49:49;27.19;55.63
72128;DHT22;60000;51.030;7.024;2023-08-24T12:52:16;27.01;57.12
72128;DHT22;60000;51.030;7.024;2023-08-24T12:54:41;26.87;58.12
72128;DHT22;60000;51.030;7.024;2023-08-24T12:57:07;26.72;59.29
72128;DHT22;60000;51.030;7.024;2023-08-24T12:59:32;26.53;60.33
72128;DHT22;60000;51.030;7.024;2023-08-24T13:01:57;26.41;61.46
72128;DHT22;60000;51.030;7.024;2023-08-24T13:04:23;26.32;61.21
72128;DHT22;60000;51.030;7.024;2023-08-24T13:06:48;26.26;61.79
72128;DHT22;60000;51.030;7.024;2023-08-24T13:09:13;26.10;61.92
72128;DHT22;60000;51.030;7.024;2023-08-24T13:11:39;26.03;62.06
72128;DHT22;60000;51.030;7.024;2023-08-24T13:14:04;25.99;63.39
72128;DHT22;60000;51.030;7.024;2023-08-24T13:16:29;25.88;64.55
72128;DHT22;60000;51.030;7.024;2023-08-24T13:18:55;25.83;66.28
72128;DHT22;60000;51.030;7.024;2023-08-24T13:21:20;25.78;67.02
72128;DHT22;60000;51.030;7.024;2023-08-24T13:23:46;25.72;67.51
72128;DHT22;60000;51.030;7.024;2023-08-24T13:26:21;25.65;67.88
72128;DHT22;60000;51.030;7.024;2023-08-24T13:28:48;25.55;68.25
72128;DHT22;60000;51.030;7.024;2023-08-24T13:31:13;25.52;68.64
72128;DHT22;60000;51.030;7.024;2023-08-24T13:33:39;25.48;68.70
72128;DHT22;60000;51.030;7.024;2023-08-24T13:36:04;25.48;69.21
72128;DHT22;60000;51.030;7.024;2023-08-24T13:38:30;25.48;69.16
72128;DHT22;60000;51.030;7.024;2023-08-24T13:40:55;25.45;69.25
72128;DHT22;60000;51.030;7.024;2023-08-24T13:43:21;25.45;68.73
72128;DHT22;60000;51.030;7.024;2023-08-24T13:45:46;25.46;69.18
72128;DHT22;60000;51.030;7.024;2023-08-24T13:48:12;25.46;68.87
72128;DHT22;60000;51.030;7.024;2023-08-24T13:50:37;25.49;68.69
72128;DHT22;60000;51.030;7.024;2023-08-24T13:53:02;25.45;68.24
72128;DHT22;60000;51.030;7.024;2023-08-24T13:55:29;25.45;67.76
72128;DHT22;60000;51.030;7.024;2023-08-24T13:57:54;25.45;68.28
72128;DHT22;60000;51.030;7.024;2023-08-24T14:00:19;25.39;67.49
72128;DHT22;60000;51.030;7.024;2023-08-24T14:02:48;25.42;67.53
72128;DHT22;60000;51.030;7.024;2023-08-24T14:05:14;25.48;67.64
72128;DHT22;60000;51.030;7.024;2023-08-24T14:07:39;25.49;67.54
72128;DHT22;60000;51.030;7.024;2023-08-24T14:10:05;25.52;67.20
72128;DHT22;60000;51.030;7.024;2023-08-24T14:12:32;25.55;67.45
72128;DHT22;60000;51.030;7.024;2023-08-24T14:14:57;25.57;67.39
72128;DHT22;60000;51.030;7.024;2023-08-24T14:17:22;25.58;67.66
72128;DHT22;60000;51.030;7.024;2023-08-24T14:19:48;25.54;67.63
72128;DHT22;60000;51.030;7.024;2023-08-24T14:22:13;25.52;67.97
72128;DHT22;60000;51.030;7.024;2023-08-24T14:24:38;25.54;68.84
72128;DHT22;60000;51.030;7.024;2023-08-24T14:27:04;25.46;68.65
72128;DHT22;60000;51.030;7.024;2023-08-24T14:29:29;25.41;68.89
72128;DHT22;60000;51.030;7.024;2023-08-24T14:31:54;25.35;69.45
72128;DHT22;60000;51.030;7.024;2023-08-24T14:34:19;25.25;69.36
72128;DHT22;60000;51.030;7.024;2023-08-24T14:36:45;25.11;69.49
72128;DHT22;60000;51.030;7.024;2023-08-24T14:39:10;25.03;70.08
72128;DHT22;60000;51.030;7.024;2023-08-24T14:41:35;24.96;70.17
72128;DHT22;60000;51.030;7.024;2023-08-24T14:44:01;24.86;70.11
72128;DHT22;60000;51.030;7.024;2023-08-24T14:46:26;24.76;70.56
72128;DHT22;60000;51.030;7.024;2023-08-24T14:48:51;24.65;70.12
72128;DHT22;60000;51.030;7.024;2023-08-24T14:51:17;24.53;70.52
72128;DHT22;60000;51.030;7.024;2023-08-24T14:53:42;24.40;70.71
72128;DHT22;60000;51.030;7.024;2023-08-24T14:56:08;24.32;70.41
72128;DHT22;60000;51.030;7.024;2023-08-24T14:58:35;24.15;70.86
72128;DHT22;60000;51.030;7.024;2023-08-24T15:01:00;24.04;71.48
72128;DHT22;60000;51.030;7.024;2023-08-24T15:03:25;23.93;71.48
72128;DHT22;60000;51.030;7.024;2023-08-24T15:05:58;23.79;72.15
72128;DHT22;60000;51.030;7.024;2023-08-24T15:08:23;23.64;72.32
72128;DHT22;60000;51.030;7.024;2023-08-24T15:10:49;23.54;72.86
72128;DHT22;60000;51.030;7.024;2023-08-24T15:13:15;23.45;73.57
72128;DHT22;60000;51.030;7.024;2023-08-24T15:15:40;23.34;73.99
72128;DHT22;60000;51.030;7.024;2023-08-24T15:18:05;23.22;74.20
72128;DHT22;60000;51.030;7.024;2023-08-24T15:20:31;23.15;74.91
72128;DHT22;60000;51.030;7.024;2023-08-24T15:22:58;23.00;75.17
72128;DHT22;60000;51.030;7.024;2023-08-24T15:25:24;22.87;75.63
72128;DHT22;60000;51.030;7.024;2023-08-24T15:27:49;22.73;76.02
72128;DHT22;60000;51.030;7.024;2023-08-24T15:30:14;22.62;76.93
72128;DHT22;60000;51.030;7.024;2023-08-24T15:32:40;22.55;77.81
72128;DHT22;60000;51.030;7.024;2023-08-24T15:35:05;22.47;78.23
72128;DHT22;60000;51.030;7.024;2023-08-24T15:37:31;22.47;78.85
72128;DHT22;60000;51.030;7.024;2023-08-24T15:39:56;22.43;79.16